sensor_id;sensor_type;location;lat;lon;timestamp;pressure;altitude;pressure_sealevel;temperature;humidity
51289;BME280;37372;52.294;5.152;2023-08-24T00:00:49;101795.22;;;16.29;100.00
51289;BME280;37372;52.294;5.152;2023-08-24T00:03:14;101787.88;;;16.34;100.00
51289;BME280;37372;52.294;5.152;2023-08-24T00:05:40;101783.53;;;16.38;100.00
51289;BME280;37372;52.294;5.152;2023-08-24T00:08:06;101777.16;;;16.38;100.00
51289;BME280;37372;52.294;5.152;2023-08-24T00:10:33;101767.75;;;16.39;100.00
51289;BME280;37372;52.294;5.152;2023-08-24T00:12:58;101775.56;;;16.42;100.00
51289;BME280;37372;52.294;5.152;2023-08-24T00:15:24;101773.16;;;16.45;100.00
51289;BME280;37372;52.294;5.152;2023-08-24T00:17:49;101783.97;;;16.47;100.00
51289;BME280;37372;52.294;5.152;2023-08-24T00:20:15;101780.34;;;16.46;100.00
51289;BME280;37372;52.294;5.152;2023-08-24T00:22:41;101768.53;;;16.51;100.00
51289;BME280;37372;52.294;5.152;2023-08-24T00:25:07;101766.63;;;16.51;100.00
51289;BME280;37372;52.294;5.152;2023-08-24T00:27:34;101771.66;;;16.55;100.00
51289;BME280;37372;52.294;5.152;2023-08-24T00:30:01;101766.50;;;16.46;100.00
51289;BME280;37372;52.294;5.152;2023-08-24T00:32:28;101764.09;;;16.50;100.00
51289;BME280;37372;52.294;5.152;2023-08-24T00:34:53;101752.19;;;16.49;100.00
51289;BME280;37372;52.294;5.152;2023-08-24T00:37:19;101757.22;;;16.52;100.00
51289;BME280;37372;52.294;5.152;2023-08-24T00:39:44;101757.78;;;16.55;100.00
51289;BME280;37372;52.294;5.152;2023-08-24T00:42:09;101739.03;;;16.57;100.00
51289;BME280;37372;52.294;5.152;2023-08-24T00:44:39;101733.97;;;16.53;100.00
51289;BME280;37372;52.294;5.152;2023-08-24T00:47:06;101740.09;;;16.56;100.00
51289;BME280;37372;52.294;5.152;2023-08-24T00:49:31;101738.75;;;16.58;100.00
51289;BME280;37372;52.294;5.152;2023-08-24T00:51:57;101730.19;;;16.60;100.00
51289;BME280;37372;52.294;5.152;2023-08-24T00:54:22;101728.88;;;16.62;100.00
51289;BME280;37372;52.294;5.152;2023-08-24T00:56:48;101735.88;;;16.53;100.00
51289;BME280;37372;52.294;5.152;2023-08-24T00:59:13;101747.72;;;16.48;100.00
51289;BME280;37372;52.294;5.152;2023-08-24T01:01:41;101746.28;;;16.46;100.00
51289;BME280;37372;52.294;5.152;2023-08-24T01:04:09;101745.69;;;16.44;100.00
51289;BME280;37372;52.294;5.152;2023-08-24T01:06:36;101744.25;;;16.41;100.00
51289;BME280;37372;52.294;5.152;2023-08-24T01:09:01;101744.03;;;16.43;100.00
51289;BME280;37372;52.294;5.152;2023-08-24T01:11:49;101738.63;;;16.36;100.00
51289;BME280;37372;52.294;5.152;2023-08-24T01:14:30;101741.72;;;16.40;100.00
51289;BME280;37372;52.294;5.152;2023-08-24T01:16:58;101744.34;;;16.46;100.00
51289;BME280;37372;52.294;5.152;2023-08-24T01:19:45;101749.41;;;16.49;100.00
51289;BME280;37372;52.294;5.152;2023-08-24T01:25:12;101751.19;;;16.56;100.00
51289;BME280;37372;52.294;5.152;2023-08-24T01:27:38;101757.91;;;16.60;100.00
51289;BME280;37372;52.294;5.152;2023-08-24T01:30:05;101736.94;;;16.64;100.00
51289;BME280;37372;52.294;5.152;2023-08-24T01:32:31;101743.88;;;16.66;100.00
51289;BME280;37372;52.294;5.152;2023-08-24T01:34:58;101746.34;;;16.63;100.00
51289;BME280;37372;52.294;5.152;2023-08-24T01:37:24;101750.19;;;16.62;100.00
51289;BME280;37372;52.294;5.152;2023-08-24T01:40:00;101761.28;;;16.62;100.00
51289;BME280;37372;52.294;5.152;2023-08-24T01:42:57;101757.06;;;16.59;100.00
51289;BME280;37372;52.294;5.152;2023-08-24T01:45:25;101753.69;;;16.57;100.00
51289;BME280;37372;52.294;5.152;2023-08-24T01:47:54;101739.28;;;16.55;100.00
51289;BME280;37372;52.294;5.152;2023-08-24T01:50:20;101726.63;;;16.47;100.00
51289;BME280;37372;52.294;5.152;2023-08-24T01:52:45;101723.94;;;16.36;100.00
51289;BME280;37372;52.294;5.152;2023-08-24T01:55:11;101712.25;;;16.34;100.00
51289;BME280;37372;52.294;5.152;2023-08-24T01:57:37;101711.00;;;16.24;100.00
51289;BME280;37372;52.294;5.152;2023-08-24T02:00:04;101692.34;;;16.20;100.00
51289;BME280;37372;52.294;5.152;2023-08-24T02:02:32;101704.16;;;16.15;100.00
51289;BME280;37372;52.294;5.152;2023-08-24T02:04:58;101701.38;;;16.15;100.00
51289;BME280;37372;52.294;5.152;2023-08-24T02:07:24;101704.41;;;16.14;100.00
51289;BME280;37372;52.294;5.152;2023-08-24T02:09:49;101701.31;;;16.10;100.00
51289;BME280;37372;52.294;5.152;2023-08-24T02:12:14;101716.56;;;16.13;100.00
51289;BME280;37372;52.294;5.152;2023-08-24T02:14:39;101712.13;;;16.12;100.00
51289;BME280;37372;52.294;5.152;2023-08-24T02:17:05;101709.09;;;16.13;100.00
51289;BME280;37372;52.294;5.152;2023-08-24T02:19:30;101708.84;;;16.15;100.00
51289;BME280;37372;52.294;5.152;2023-08-24T02:21:56;101705.75;;;16.11;100.00
51289;BME280;37372;52.294;5.152;2023-08-24T02:24:21;101694.84;;;16.05;100.00
51289;BME280;37372;52.294;5.152;2023-08-24T02:26:47;101684.25;;;16.02;100.00
51289;BME280;37372;52.294;5.152;2023-08-24T02:29:12;101682.31;;;16.02;100.00
51289;BME280;37372;52.294;5.152;2023-08-24T02:31:38;101671.50;;;16.01;100.00
51289;BME280;37372;52.294;5.152;2023-08-24T02:34:03;101680.31;;;15.97;100.00
51289;BME280;37372;52.294;5.152;2023-08-24T02:36:28;101673.31;;;15.95;100.00
51289;BME280;37372;52.294;5.152;2023-08-24T02:38:57;101677.31;;;15.87;100.00
51289;BME280;37372;52.294;5.152;2023-08-24T02:41:22;101676.72;;;15.85;100.00
51289;BME280;37372;52.294;5.152;2023-08-24T02:43:47;101677.56;;;15.86;100.00
51289;BME280;37372;52.294;5.152;2023-08-24T02:46:13;101674.19;;;15.84;100.00
51289;BME280;37372;52.294;5.152;2023-08-24T02:48:38;101663.38;;;15.82;100.00
51289;BME280;37372;52.294;5.152;2023-08-24T02:51:05;101657.84;;;15.82;100.00
51289;BME280;37372;52.294;5.152;2023-08-24T02:53:31;101656.16;;;15.81;100.00
51289;BME280;37372;52.294;5.152;2023-08-24T02:55:57;101649.78;;;15.81;100.00
51289;BME280;37372;52.294;5.152;2023-08-24T02:58:22;101640.78;;;15.74;100.00
51289;BME280;37372;52.294;5.152;2023-08-24T03:00:48;101633.22;;;15.69;100.00
51289;BME280;37372;52.294;5.152;2023-08-24T03:03:14;101643.47;;;15.68;100.00
51289;BME280;37372;52.294;5.152;2023-08-24T03:05:40;101653.44;;;15.69;100.00
51289;BME280;37372;52.294;5.152;2023-08-24T03:08:05;101658.38;;;15.67;100.00
51289;BME280;37372;52.294;5.152;2023-08-24T03:10:34;101647.78;;;15.64;100.00
51289;BME280;37372;52.294;5.152;2023-08-24T03:12:59;101634.69;;;15.60;100.00
51289;BME280;37372;52.294;5.152;2023-08-24T03:15:25;101631.06;;;15.59;100.00
51289;BME280;37372;52.294;5.152;2023-08-24T03:17:50;101627.94;;;15.56;100.00
51289;BME280;37372;52.294;5.152;2023-08-24T03:20:18;101621.84;;;15.54;100.00
51289;BME280;37372;52.294;5.152;2023-08-24T03:22:43;101627.25;;;15.49;100.00
51289;BME280;37372;52.294;5.152;2023-08-24T03:25:08;101620.03;;;15.48;100.00
51289;BME280;37372;52.294;5.152;2023-08-24T03:27:34;101622.81;;;15.48;100.00
51289;BME280;37372;52.294;5.152;2023-08-24T03:30:00;101618.38;;;15.47;100.00
51289;BME280;37372;52.294;5.152;2023-08-24T03:32:25;101619.94;;;15.42;100.00
51289;BME280;37372;52.294;5.152;2023-08-24T03:34:51;101608.50;;;15.39;100.00
51289;BME280;37372;52.294;5.152;2023-08-24T03:37:16;101609.38;;;15.39;100.00
51289;BME280;37372;52.294;5.152;2023-08-24T03:39:41;101610.69;;;15.37;100.00
51289;BME280;37372;52.294;5.152;2023-08-24T03:42:07;101611.78;;;15.36;100.00
51289;BME280;37372;52.294;5.152;2023-08-24T03:44:34;101612.34;;;15.38;100.00
51289;BME280;37372;52.294;5.152;2023-08-24T03:47:00;101620.44;;;15.39;100.00
51289;BME280;37372;52.294;5.152;2023-08-24T03:49:25;101615.13;;;15.38;100.00
51289;BME280;37372;52.294;5.152;2023-08-24T03:51:51;101615.38;;;15.36;100.00
51289;BME280;37372;52.294;5.152;2023-08-24T03:54:16;101611.78;;;15.36;100.00
51289;BME280;37372;52.294;5.152;2023-08-24T03:56:42;101620.06;;;15.36;100.00
51289;BME280;37372;52.294;5.152;2023-08-24T03:59:08;101618.13;;;15.36;100.00
51289;BME280;37372;52.294;5.152;2023-08-24T04:01:33;101613.19;;;15.38;100.00
51289;BME280;37372;52.294;5.152;2023-08-24T04:03:59;101615.97;;;15.38;100.00
51289;BME280;37372;52.294;5.152;2023-08-24T04:06:24;101618.25;;;15.41;100.00
51289;BME280;37372;52.294;5.152;2023-08-24T04:08:49;101612.72;;;15.41;100.00
51289;BME280;37372;52.294;5.152;2023-08-24T04:11:15;101604.44;;;15.41;100.00
51289;BME280;37372;52.294;5.152;2023-08-24T04:13:40;101609.59;;;15.38;100.00
51289;BME280;37372;52.294;5.152;2023-08-24T04:16:06;101620.66;;;15.38;100.00
51289;BME280;37372;52.294;5.152;2023-08-24T04:18:31;101614.03;;;15.39;100.00
51289;BME280;37372;52.294;5.152;2023-08-24T04:20:56;101613.19;;;15.38;100.00
51289;BME280;37372;52.294;5.152;2023-08-24T04:23:25;101611.88;;;15.41;100.00
51289;BME280;37372;52.294;5.152;2023-08-24T04:25:51;101616.31;;;15.42;100.00
51289;BME280;37372;52.294;5.152;2023-08-24T04:28:17;101617.41;;;15.41;100.00
51289;BME280;37372;52.294;5.152;2023-08-24T04:30:49;101607.66;;;15.38;100.00
51289;BME280;37372;52.294;5.152;2023-08-24T04:33:15;101605.66;;;15.34;100.00
51289;BME280;37372;52.294;5.152;2023-08-24T04:35:40;101608.06;;;15.30;100.00
51289;BME280;37372;52.294;5.152;2023-08-24T04:38:06;101610.47;;;15.27;100.00
51289;BME280;37372;52.294;5.152;2023-08-24T04:43:16;101613.84;;;15.29;100.00
51289;BME280;37372;52.294;5.152;2023-08-24T04:45:42;101611.66;;;15.31;100.00
51289;BME280;37372;52.294;5.152;2023-08-24T04:48:07;101606.50;;;15.34;100.00
51289;BME280;37372;52.294;5.152;2023-08-24T04:50:33;101608.16;;;15.35;100.00
51289;BME280;37372;52.294;5.152;2023-08-24T04:52:58;101617.88;;;15.38;100.00
51289;BME280;37372;52.294;5.152;2023-08-24T04:55:24;101609.38;;;15.39;100.00
51289;BME280;37372;52.294;5.152;2023-08-24T04:57:49;101614.41;;;15.42;100.00
51289;BME280;37372;52.294;5.152;2023-08-24T05:00:15;101612.84;;;15.47;100.00
51289;BME280;37372;52.294;5.152;2023-08-24T05:02:44;101614.25;;;15.49;100.00
51289;BME280;37372;52.294;5.152;2023-08-24T05:05:09;101612.91;;;15.52;100.00
51289;BME280;37372;52.294;5.152;2023-08-24T05:07:40;101616.78;;;15.51;100.00
51289;BME280;37372;52.294;5.152;2023-08-24T05:10:07;101607.63;;;15.50;100.00
51289;BME280;37372;52.294;5.152;2023-08-24T05:12:33;101591.88;;;15.51;100.00
51289;BME280;37372;52.294;5.152;2023-08-24T05:15:01;101595.50;;;15.51;100.00
51289;BME280;37372;52.294;5.152;2023-08-24T05:17:27;101586.59;;;15.49;100.00
51289;BME280;37372;52.294;5.152;2023-08-24T05:19:55;101579.16;;;15.50;100.00
51289;BME280;37372;52.294;5.152;2023-08-24T05:22:21;101564.84;;;15.53;100.00
51289;BME280;37372;52.294;5.152;2023-08-24T05:24:47;101564.84;;;15.53;100.00
51289;BME280;37372;52.294;5.152;2023-08-24T05:27:12;101563.50;;;15.55;100.00
51289;BME280;37372;52.294;5.152;2023-08-24T05:29:37;101559.38;;;15.58;100.00
51289;BME280;37372;52.294;5.152;2023-08-24T05:32:03;101562.28;;;15.63;100.00
51289;BME280;37372;52.294;5.152;2023-08-24T05:34:28;101564.06;;;15.69;100.00
51289;BME280;37372;52.294;5.152;2023-08-24T05:36:54;101555.28;;;15.72;100.00
51289;BME280;37372;52.294;5.152;2023-08-24T05:39:19;101553.22;;;15.79;100.00
51289;BME280;37372;52.294;5.152;2023-08-24T05:41:45;101544.50;;;15.87;100.00
51289;BME280;37372;52.294;5.152;2023-08-24T05:44:10;101548.78;;;15.95;100.00
51289;BME280;37372;52.294;5.152;2023-08-24T05:46:35;101557.53;;;16.04;100.00
51289;BME280;37372;52.294;5.152;2023-08-24T05:49:01;101558.78;;;16.13;100.00
51289;BME280;37372;52.294;5.152;2023-08-24T05:51:26;101557.94;;;16.29;100.00
51289;BME280;37372;52.294;5.152;2023-08-24T05:53:52;101548.22;;;16.43;100.00
51289;BME280;37372;52.294;5.152;2023-08-24T05:56:24;101541.72;;;16.55;100.00
51289;BME280;37372;52.294;5.152;2023-08-24T05:58:49;101542.75;;;16.65;100.00
51289;BME280;37372;52.294;5.152;2023-08-24T06:01:15;101539.13;;;16.65;100.00
51289;BME280;37372;52.294;5.152;2023-08-24T06:03:40;101543.00;;;16.64;100.00
51289;BME280;37372;52.294;5.152;2023-08-24T06:06:06;101543.84;;;16.64;100.00
51289;BME280;37372;52.294;5.152;2023-08-24T06:08:33;101536.94;;;16.67;100.00
51289;BME280;37372;52.294;5.152;2023-08-24T06:10:58;101531.56;;;16.60;100.00
51289;BME280;37372;52.294;5.152;2023-08-24T06:13:24;101517.50;;;16.62;100.00
51289;BME280;37372;52.294;5.152;2023-08-24T06:15:49;101518.97;;;16.69;100.00
51289;BME280;37372;52.294;5.152;2023-08-24T06:18:15;101505.34;;;16.68;100.00
51289;BME280;37372;52.294;5.152;2023-08-24T06:20:41;101504.38;;;16.74;100.00
51289;BME280;37372;52.294;5.152;2023-08-24T06:23:07;101503.34;;;16.80;100.00
51289;BME280;37372;52.294;5.152;2023-08-24T06:25:33;101502.09;;;16.88;100.00
51289;BME280;37372;52.294;5.152;2023-08-24T06:27:58;101501.38;;;16.97;100.00
51289;BME280;37372;52.294;5.152;2023-08-24T06:30:27;101503.13;;;17.03;100.00
51289;BME280;37372;52.294;5.152;2023-08-24T06:32:52;101497.91;;;17.07;100.00
51289;BME280;37372;52.294;5.152;2023-08-24T06:35:18;101499.88;;;17.12;100.00
51289;BME280;37372;52.294;5.152;2023-08-24T06:37:44;101503.69;;;17.27;100.00
51289;BME280;37372;52.294;5.152;2023-08-24T06:40:10;101501.28;;;17.36;100.00
51289;BME280;37372;52.294;5.152;2023-08-24T06:42:35;101492.63;;;17.54;100.00
51289;BME280;37372;52.294;5.152;2023-08-24T06:45:01;101490.41;;;17.56;100.00
51289;BME280;37372;52.294;5.152;2023-08-24T06:47:26;101492.34;;;17.78;100.00
51289;BME280;37372;52.294;5.152;2023-08-24T06:49:51;101485.75;;;17.89;100.00
51289;BME280;37372;52.294;5.152;2023-08-24T06:52:17;101484.97;;;17.94;100.00
51289;BME280;37372;52.294;5.152;2023-08-24T06:54:42;101475.81;;;17.93;100.00
51289;BME280;37372;52.294;5.152;2023-08-24T06:57:07;101471.47;;;18.07;100.00
51289;BME280;37372;52.294;5.152;2023-08-24T06:59:33;101470.00;;;18.32;100.00
51289;BME280;37372;52.294;5.152;2023-08-24T07:01:58;101476.78;;;18.51;100.00
51289;BME280;37372;52.294;5.152;2023-08-24T07:04:25;101478.88;;;18.71;100.00
51289;BME280;37372;52.294;5.152;2023-08-24T07:06:52;101481.66;;;18.71;100.00
51289;BME280;37372;52.294;5.152;2023-08-24T07:09:19;101485.44;;;18.60;100.00
51289;BME280;37372;52.294;5.152;2023-08-24T07:11:44;101480.72;;;18.60;100.00
51289;BME280;37372;52.294;5.152;2023-08-24T07:14:09;101479.34;;;18.63;100.00
51289;BME280;37372;52.294;5.152;2023-08-24T07:16:35;101489.09;;;18.65;100.00
51289;BME280;37372;52.294;5.152;2023-08-24T07:19:00;101471.03;;;18.63;100.00
51289;BME280;37372;52.294;5.152;2023-08-24T07:21:25;101463.00;;;18.66;100.00
51289;BME280;37372;52.294;5.152;2023-08-24T07:23:51;101463.00;;;18.66;100.00
51289;BME280;37372;52.294;5.152;2023-08-24T07:26:16;101463.34;;;18.80;100.00
51289;BME280;37372;52.294;5.152;2023-08-24T07:28:42;101461.50;;;19.01;100.00
51289;BME280;37372;52.294;5.152;2023-08-24T07:31:11;101462.59;;;18.95;100.00
51289;BME280;37372;52.294;5.152;2023-08-24T07:33:40;101465.41;;;19.05;100.00
51289;BME280;37372;52.294;5.152;2023-08-24T07:36:09;101448.78;;;19.31;100.00
51289;BME280;37372;52.294;5.152;2023-08-24T07:38:35;101450.78;;;19.45;100.00
51289;BME280;37372;52.294;5.152;2023-08-24T07:41:01;101446.09;;;19.61;100.00
51289;BME280;37372;52.294;5.152;2023-08-24T07:43:26;101448.91;;;19.97;100.00
51289;BME280;37372;52.294;5.152;2023-08-24T07:45:52;101444.97;;;20.08;100.00
51289;BME280;37372;52.294;5.152;2023-08-24T07:48:17;101450.00;;;20.11;100.00
51289;BME280;37372;52.294;5.152;2023-08-24T07:50:43;101443.31;;;20.12;100.00
51289;BME280;37372;52.294;5.152;2023-08-24T07:53:08;101452.50;;;20.18;100.00
51289;BME280;37372;52.294;5.152;2023-08-24T07:55:34;101447.78;;;20.23;100.00
51289;BME280;37372;52.294;5.152;2023-08-24T07:57:59;101451.06;;;20.41;100.00
51289;BME280;37372;52.294;5.152;2023-08-24T08:00:25;101448.25;;;20.66;99.87
51289;BME280;37372;52.294;5.152;2023-08-24T08:02:51;101453.50;;;20.78;98.03
51289;BME280;37372;52.294;5.152;2023-08-24T08:05:17;101440.38;;;20.83;97.64
51289;BME280;37372;52.294;5.152;2023-08-24T08:07:42;101444.31;;;20.77;94.88
51289;BME280;37372;52.294;5.152;2023-08-24T08:10:09;101428.81;;;21.10;95.09
51289;BME280;37372;52.294;5.152;2023-08-24T08:12:34;101422.66;;;21.14;93.56
51289;BME280;37372;52.294;5.152;2023-08-24T08:15:00;101408.47;;;21.05;94.47
51289;BME280;37372;52.294;5.152;2023-08-24T08:17:26;101405.63;;;21.15;91.13
51289;BME280;37372;52.294;5.152;2023-08-24T08:19:56;101416.78;;;21.15;90.43
51289;BME280;37372;52.294;5.152;2023-08-24T08:22:22;101423.94;;;21.36;90.25
51289;BME280;37372;52.294;5.152;2023-08-24T08:24:47;101420.00;;;21.38;89.16
51289;BME280;37372;52.294;5.152;2023-08-24T08:27:13;101415.22;;;21.48;89.32
51289;BME280;37372;52.294;5.152;2023-08-24T08:29:38;101416.56;;;21.51;88.35
51289;BME280;37372;52.294;5.152;2023-08-24T08:32:04;101413.97;;;21.65;88.61
51289;BME280;37372;52.294;5.152;2023-08-24T08:34:31;101411.72;;;21.67;88.22
51289;BME280;37372;52.294;5.152;2023-08-24T08:36:56;101412.22;;;21.74;87.78
51289;BME280;37372;52.294;5.152;2023-08-24T08:39:22;101419.47;;;21.75;89.67
51289;BME280;37372;52.294;5.152;2023-08-24T08:41:48;101416.22;;;21.62;88.19
51289;BME280;37372;52.294;5.152;2023-08-24T08:44:14;101420.94;;;21.67;88.95
51289;BME280;37372;52.294;5.152;2023-08-24T08:46:43;101408.06;;;21.71;87.85
51289;BME280;37372;52.294;5.152;2023-08-24T08:49:09;101396.00;;;21.76;88.05
51289;BME280;37372;52.294;5.152;2023-08-24T08:51:37;101401.53;;;21.81;88.32
51289;BME280;37372;52.294;5.152;2023-08-24T08:54:06;101401.19;;;21.87;89.50
51289;BME280;37372;52.294;5.152;2023-08-24T08:56:32;101397.88;;;21.85;89.09
51289;BME280;37372;52.294;5.152;2023-08-24T08:58:59;101399.84;;;21.85;89.30
51289;BME280;37372;52.294;5.152;2023-08-24T09:01:28;101393.94;;;21.86;89.20
51289;BME280;37372;52.294;5.152;2023-08-24T09:03:54;101377.91;;;21.68;88.77
51289;BME280;37372;52.294;5.152;2023-08-24T09:06:20;101373.81;;;21.89;89.73
51289;BME280;37372;52.294;5.152;2023-08-24T09:08:47;101367.03;;;21.96;89.71
51289;BME280;37372;52.294;5.152;2023-08-24T09:11:14;101354.25;;;21.89;89.54
51289;BME280;37372;52.294;5.152;2023-08-24T09:13:40;101338.81;;;21.97;89.60
51289;BME280;37372;52.294;5.152;2023-08-24T09:16:06;101337.31;;;22.10;89.35
51289;BME280;37372;52.294;5.152;2023-08-24T09:18:39;101341.59;;;22.26;88.40
51289;BME280;37372;52.294;5.152;2023-08-24T09:21:09;101348.97;;;22.17;88.43
51289;BME280;37372;52.294;5.152;2023-08-24T09:23:34;101349.97;;;22.26;87.86
51289;BME280;37372;52.294;5.152;2023-08-24T09:26:00;101357.88;;;22.19;87.45
51289;BME280;37372;52.294;5.152;2023-08-24T09:28:25;101361.66;;;22.04;87.58
51289;BME280;37372;52.294;5.152;2023-08-24T09:30:54;101363.22;;;21.86;88.06
51289;BME280;37372;52.294;5.152;2023-08-24T09:33:20;101356.28;;;21.84;90.27
51289;BME280;37372;52.294;5.152;2023-08-24T09:35:52;101356.63;;;21.77;89.24
51289;BME280;37372;52.294;5.152;2023-08-24T09:38:19;101351.91;;;21.73;90.80
51289;BME280;37372;52.294;5.152;2023-08-24T09:40:45;101337.69;;;21.69;91.99
51289;BME280;37372;52.294;5.152;2023-08-24T09:43:13;101322.66;;;21.65;92.53
51289;BME280;37372;52.294;5.152;2023-08-24T09:45:47;101313.84;;;21.53;93.23
51289;BME280;37372;52.294;5.152;2023-08-24T09:48:12;101304.06;;;21.50;94.00
51289;BME280;37372;52.294;5.152;2023-08-24T09:50:38;101294.59;;;21.51;94.41
51289;BME280;37372;52.294;5.152;2023-08-24T09:53:05;101301.53;;;21.54;94.62
51289;BME280;37372;52.294;5.152;2023-08-24T09:55:32;101310.44;;;21.56;94.80
51289;BME280;37372;52.294;5.152;2023-08-24T09:58:03;101311.56;;;21.55;95.62
51289;BME280;37372;52.294;5.152;2023-08-24T10:00:29;101311.03;;;21.53;95.95
51289;BME280;37372;52.294;5.152;2023-08-24T10:02:55;101325.50;;;21.60;96.22
51289;BME280;37372;52.294;5.152;2023-08-24T10:05:25;101324.06;;;21.62;96.73
51289;BME280;37372;52.294;5.152;2023-08-24T10:07:55;101317.59;;;21.67;97.21
51289;BME280;37372;52.294;5.152;2023-08-24T10:10:22;101315.13;;;21.66;97.31
51289;BME280;37372;52.294;5.152;2023-08-24T10:12:57;101313.69;;;21.68;97.30
51289;BME280;37372;52.294;5.152;2023-08-24T10:15:24;101314.78;;;21.72;97.75
51289;BME280;37372;52.294;5.152;2023-08-24T10:17:50;101314.50;;;21.69;98.16
51289;BME280;37372;52.294;5.152;2023-08-24T10:20:18;101320.22;;;21.58;99.89
51289;BME280;37372;52.294;5.152;2023-08-24T10:22:46;101330.94;;;21.46;100.00
51289;BME280;37372;52.294;5.152;2023-08-24T10:25:13;101337.41;;;21.36;100.00
51289;BME280;37372;52.294;5.152;2023-08-24T10:27:39;101341.41;;;21.25;100.00
51289;BME280;37372;52.294;5.152;2023-08-24T10:30:12;101352.63;;;21.15;100.00
51289;BME280;37372;52.294;5.152;2023-08-24T10:32:39;101344.56;;;21.08;100.00
51289;BME280;37372;52.294;5.152;2023-08-24T10:35:06;101352.97;;;21.03;100.00
51289;BME280;37372;52.294;5.152;2023-08-24T10:37:32;101357.19;;;20.96;100.00
51289;BME280;37372;52.294;5.152;2023-08-24T10:39:59;101351.09;;;20.89;100.00
51289;BME280;37372;52.294;5.152;2023-08-24T10:42:25;101346.69;;;20.82;100.00
51289;BME280;37372;52.294;5.152;2023-08-24T10:44:52;101342.78;;;20.78;100.00
51289;BME280;37372;52.294;5.152;2023-08-24T10:49:44;101345.28;;;20.80;100.00
51289;BME280;37372;52.294;5.152;2023-08-24T10:52:20;101343.88;;;20.88;100.00
51289;BME280;37372;52.294;5.152;2023-08-24T10:54:47;101347.72;;;20.97;100.00
51289;BME280;37372;52.294;5.152;2023-08-24T10:57:27;101335.03;;;21.15;100.00
51289;BME280;37372;52.294;5.152;2023-08-24T11:02:48;101337.59;;;21.79;100.00
51289;BME280;37372;52.294;5.152;2023-08-24T11:05:21;101328.97;;;22.05;100.00
51289;BME280;37372;52.294;5.152;2023-08-24T11:10:23;101318.97;;;21.99;100.00
51289;BME280;37372;52.294;5.152;2023-08-24T11:13:04;101318.91;;;22.04;100.00
51289;BME280;37372;52.294;5.152;2023-08-24T11:15:44;101321.59;;;21.90;100.00
51289;BME280;37372;52.294;5.152;2023-08-24T11:21:13;101309.41;;;22.05;100.00
51289;BME280;37372;52.294;5.152;2023-08-24T11:23:42;101313.13;;;22.24;100.00
51289;BME280;37372;52.294;5.152;2023-08-24T11:26:08;101312.03;;;22.44;100.00
51289;BME280;37372;52.294;5.152;2023-08-24T11:28:33;101309.41;;;22.71;100.00
51289;BME280;37372;52.294;5.152;2023-08-24T11:30:59;101308.16;;;22.83;100.00
51289;BME280;37372;52.294;5.152;2023-08-24T11:33:35;101309.09;;;22.97;100.00
51289;BME280;37372;52.294;5.152;2023-08-24T11:36:03;101312.13;;;23.01;100.00
51289;BME280;37372;52.294;5.152;2023-08-24T11:38:39;101316.66;;;22.96;100.00
51289;BME280;37372;52.294;5.152;2023-08-24T11:41:14;101303.16;;;22.61;100.00
51289;BME280;37372;52.294;5.152;2023-08-24T11:43:41;101292.84;;;22.13;100.00
51289;BME280;37372;52.294;5.152;2023-08-24T11:46:07;101279.38;;;21.92;100.00
51289;BME280;37372;52.294;5.152;2023-08-24T11:48:32;101279.34;;;21.39;100.00
51289;BME280;37372;52.294;5.152;2023-08-24T11:50:58;101292.28;;;21.58;100.00
51289;BME280;37372;52.294;5.152;2023-08-24T11:53:24;101279.44;;;21.23;100.00
51289;BME280;37372;52.294;5.152;2023-08-24T11:55:52;101271.56;;;21.35;100.00
51289;BME280;37372;52.294;5.152;2023-08-24T11:58:18;101265.03;;;21.11;100.00
51289;BME280;37372;52.294;5.152;2023-08-24T12:00:45;101268.88;;;21.20;100.00
51289;BME280;37372;52.294;5.152;2023-08-24T12:03:11;101268.22;;;21.33;100.00
51289;BME280;37372;52.294;5.152;2023-08-24T12:05:37;101259.13;;;21.52;100.00
51289;BME280;37372;52.294;5.152;2023-08-24T12:08:03;101249.75;;;21.67;100.00
51289;BME280;37372;52.294;5.152;2023-08-24T12:10:29;101236.03;;;21.70;100.00
51289;BME280;37372;52.294;5.152;2023-08-24T12:13:05;101223.84;;;21.61;100.00
51289;BME280;37372;52.294;5.152;2023-08-24T12:15:34;101226.13;;;21.59;100.00
51289;BME280;37372;52.294;5.152;2023-08-24T12:18:10;101232.34;;;21.75;100.00
51289;BME280;37372;52.294;5.152;2023-08-24T12:20:36;101226.34;;;21.62;100.00
51289;BME280;37372;52.294;5.152;2023-08-24T12:23:02;101227.59;;;21.51;100.00
51289;BME280;37372;52.294;5.152;2023-08-24T12:25:28;101215.25;;;21.81;100.00
51289;BME280;37372;52.294;5.152;2023-08-24T12:28:15;101227.44;;;22.14;100.00
51289;BME280;37372;52.294;5.152;2023-08-24T12:30:49;101227.25;;;22.30;100.00
51289;BME280;37372;52.294;5.152;2023-08-24T12:33:26;101232.81;;;21.82;100.00
51289;BME280;37372;52.294;5.152;2023-08-24T12:35:53;101218.50;;;21.88;100.00
51289;BME280;37372;52.294;5.152;2023-08-24T12:38:19;101198.78;;;21.56;100.00
51289;BME280;37372;52.294;5.152;2023-08-24T12:40:45;101184.88;;;21.99;100.00
51289;BME280;37372;52.294;5.152;2023-08-24T12:43:10;101182.38;;;21.73;100.00
51289;BME280;37372;52.294;5.152;2023-08-24T12:45:36;101162.88;;;21.68;100.00
51289;BME280;37372;52.294;5.152;2023-08-24T12:48:06;101155.38;;;21.87;100.00
51289;BME280;37372;52.294;5.152;2023-08-24T12:50:33;101150.56;;;22.17;100.00
51289;BME280;37372;52.294;5.152;2023-08-24T12:52:58;101148.16;;;21.86;100.00
51289;BME280;37372;52.294;5.152;2023-08-24T12:55:26;101149.44;;;21.94;100.00
51289;BME280;37372;52.294;5.152;2023-08-24T12:57:51;101143.91;;;21.89;100.00